sensor_id;sensor_type;location;lat;lon;timestamp;P1;durP1;ratioP1;P2;durP2;ratioP2
61635;SDS011;59438;45.014;39.006;2023-03-19T00:01:27;43.40;;;5.20;;
61635;SDS011;59438;45.014;39.006;2023-03-19T00:03:54;51.97;;;5.78;;
61635;SDS011;59438;45.014;39.006;2023-03-19T00:06:20;45.92;;;5.35;;
61635;SDS011;59438;45.014;39.006;2023-03-19T00:08:47;46.03;;;5.18;;
61635;SDS011;59438;45.014;39.006;2023-03-19T00:11:13;43.03;;;6.05;;
61635;SDS011;59438;45.014;39.006;2023-03-19T00:13:39;45.17;;;6.15;;
61635;SDS011;59438;45.014;39.006;2023-03-19T00:16:07;34.85;;;4.97;;
61635;SDS011;59438;45.014;39.006;2023-03-19T00:18:34;50.08;;;5.30;;
61635;SDS011;59438;45.014;39.006;2023-03-19T00:21:00;46.60;;;5.13;;
61635;SDS011;59438;45.014;39.006;2023-03-19T00:23:26;47.83;;;5.32;;
61635;SDS011;59438;45.014;39.006;2023-03-19T00:25:53;46.10;;;5.47;;
61635;SDS011;59438;45.014;39.006;2023-03-19T00:28:19;32.20;;;4.97;;
61635;SDS011;59438;45.014;39.006;2023-03-19T00:30:45;50.15;;;5.10;;
61635;SDS011;59438;45.014;39.006;2023-03-19T00:33:13;35.15;;;4.68;;
61635;SDS011;59438;45.014;39.006;2023-03-19T00:35:40;40.70;;;5.80;;
61635;SDS011;59438;45.014;39.006;2023-03-19T00:38:06;35.88;;;5.40;;
61635;SDS011;59438;45.014;39.006;2023-03-19T00:40:32;47.30;;;4.68;;
61635;SDS011;59438;45.014;39.006;2023-03-19T00:42:59;52.25;;;5.05;;
61635;SDS011;59438;45.014;39.006;2023-03-19T00:45:25;41.47;;;5.25;;
61635;SDS011;59438;45.014;39.006;2023-03-19T00:47:51;41.72;;;6.05;;
61635;SDS011;59438;45.014;39.006;2023-03-19T00:50:19;48.95;;;6.65;;
61635;SDS011;59438;45.014;39.006;2023-03-19T00:52:45;52.47;;;6.80;;
61635;SDS011;59438;45.014;39.006;2023-03-19T00:55:12;54.53;;;6.07;;
61635;SDS011;59438;45.014;39.006;2023-03-19T00:57:38;29.30;;;5.05;;
61635;SDS011;59438;45.014;39.006;2023-03-19T01:00:05;36.70;;;4.70;;
61635;SDS011;59438;45.014;39.006;2023-03-19T01:02:32;30.42;;;5.63;;
61635;SDS011;59438;45.014;39.006;2023-03-19T01:04:59;43.88;;;5.70;;
61635;SDS011;59438;45.014;39.006;2023-03-19T01:07:27;43.63;;;5.03;;
61635;SDS011;59438;45.014;39.006;2023-03-19T01:09:53;39.75;;;4.60;;
61635;SDS011;59438;45.014;39.006;2023-03-19T01:12:20;37.67;;;5.07;;
61635;SDS011;59438;45.014;39.006;2023-03-19T01:14:46;35.22;;;5.88;;
61635;SDS011;59438;45.014;39.006;2023-03-19T01:17:12;37.50;;;5.15;;
61635;SDS011;59438;45.014;39.006;2023-03-19T01:19:39;36.95;;;5.30;;
61635;SDS011;59438;45.014;39.006;2023-03-19T01:22:05;45.90;;;5.80;;
61635;SDS011;59438;45.014;39.006;2023-03-19T01:24:33;38.22;;;4.80;;
61635;SDS011;59438;45.014;39.006;2023-03-19T01:26:59;39.92;;;5.05;;
61635;SDS011;59438;45.014;39.006;2023-03-19T01:29:26;40.65;;;5.18;;
61635;SDS011;59438;45.014;39.006;2023-03-19T01:31:52;34.58;;;5.07;;
61635;SDS011;59438;45.014;39.006;2023-03-19T01:34:18;38.35;;;5.38;;
61635;SDS011;59438;45.014;39.006;2023-03-19T01:36:45;51.95;;;6.10;;
61635;SDS011;59438;45.014;39.006;2023-03-19T01:39:11;42.00;;;5.75;;
61635;SDS011;59438;45.014;39.006;2023-03-19T01:41:39;36.13;;;5.90;;
61635;SDS011;59438;45.014;39.006;2023-03-19T01:46:51;29.67;;;4.97;;
61635;SDS011;59438;45.014;39.006;2023-03-19T01:49:18;38.42;;;4.80;;
61635;SDS011;59438;45.014;39.006;2023-03-19T01:51:46;34.95;;;4.78;;
61635;SDS011;59438;45.014;39.006;2023-03-19T01:54:13;32.88;;;5.32;;
61635;SDS011;59438;45.014;39.006;2023-03-19T01:56:45;34.03;;;5.35;;
61635;SDS011;59438;45.014;39.006;2023-03-19T01:59:16;30.67;;;4.43;;
61635;SDS011;59438;45.014;39.006;2023-03-19T02:01:46;34.53;;;5.05;;
61635;SDS011;59438;45.014;39.006;2023-03-19T02:04:18;27.02;;;4.35;;
61635;SDS011;59438;45.014;39.006;2023-03-19T02:06:45;39.92;;;4.93;;
61635;SDS011;59438;45.014;39.006;2023-03-19T02:09:12;34.38;;;5.57;;
61635;SDS011;59438;45.014;39.006;2023-03-19T02:11:39;29.00;;;4.97;;
61635;SDS011;59438;45.014;39.006;2023-03-19T02:14:07;32.30;;;5.47;;
61635;SDS011;59438;45.014;39.006;2023-03-19T02:16:34;18.95;;;4.38;;
61635;SDS011;59438;45.014;39.006;2023-03-19T02:19:01;42.95;;;4.13;;
61635;SDS011;59438;45.014;39.006;2023-03-19T02:21:27;34.97;;;5.38;;
61635;SDS011;59438;45.014;39.006;2023-03-19T02:23:56;28.05;;;4.90;;
61635;SDS011;59438;45.014;39.006;2023-03-19T02:26:29;32.50;;;5.68;;
61635;SDS011;59438;45.014;39.006;2023-03-19T02:28:56;38.35;;;5.47;;
61635;SDS011;59438;45.014;39.006;2023-03-19T02:31:22;30.75;;;4.82;;
61635;SDS011;59438;45.014;39.006;2023-03-19T02:33:56;31.40;;;5.22;;
61635;SDS011;59438;45.014;39.006;2023-03-19T02:36:24;24.25;;;5.32;;
61635;SDS011;59438;45.014;39.006;2023-03-19T02:38:53;24.77;;;4.25;;
61635;SDS011;59438;45.014;39.006;2023-03-19T02:41:23;34.65;;;4.55;;
61635;SDS011;59438;45.014;39.006;2023-03-19T02:43:52;25.63;;;4.30;;
61635;SDS011;59438;45.014;39.006;2023-03-19T02:46:19;34.47;;;5.18;;
61635;SDS011;59438;45.014;39.006;2023-03-19T02:48:45;29.27;;;4.90;;
61635;SDS011;59438;45.014;39.006;2023-03-19T02:51:11;25.70;;;4.90;;
61635;SDS011;59438;45.014;39.006;2023-03-19T02:53:38;37.20;;;5.15;;
61635;SDS011;59438;45.014;39.006;2023-03-19T02:56:04;36.15;;;5.32;;
61635;SDS011;59438;45.014;39.006;2023-03-19T02:58:31;38.72;;;4.82;;
61635;SDS011;59438;45.014;39.006;2023-03-19T03:00:59;32.13;;;5.35;;
61635;SDS011;59438;45.014;39.006;2023-03-19T03:03:25;32.17;;;5.40;;
61635;SDS011;59438;45.014;39.006;2023-03-19T03:05:52;28.33;;;5.45;;
61635;SDS011;59438;45.014;39.006;2023-03-19T03:08:18;30.55;;;5.13;;
61635;SDS011;59438;45.014;39.006;2023-03-19T03:10:44;25.48;;;5.32;;
61635;SDS011;59438;45.014;39.006;2023-03-19T03:13:11;27.58;;;4.60;;
61635;SDS011;59438;45.014;39.006;2023-03-19T03:15:37;33.92;;;4.95;;
61635;SDS011;59438;45.014;39.006;2023-03-19T03:18:05;34.10;;;4.78;;
61635;SDS011;59438;45.014;39.006;2023-03-19T03:20:31;35.17;;;4.68;;
61635;SDS011;59438;45.014;39.006;2023-03-19T03:22:58;26.73;;;4.18;;
61635;SDS011;59438;45.014;39.006;2023-03-19T03:25:24;36.92;;;5.10;;
61635;SDS011;59438;45.014;39.006;2023-03-19T03:27:50;28.98;;;4.63;;
61635;SDS011;59438;45.014;39.006;2023-03-19T03:30:17;38.42;;;5.75;;
61635;SDS011;59438;45.014;39.006;2023-03-19T03:32:43;34.15;;;5.05;;
61635;SDS011;59438;45.014;39.006;2023-03-19T03:35:11;29.23;;;4.45;;
61635;SDS011;59438;45.014;39.006;2023-03-19T03:37:37;41.70;;;5.60;;
61635;SDS011;59438;45.014;39.006;2023-03-19T03:40:04;29.95;;;5.20;;
61635;SDS011;59438;45.014;39.006;2023-03-19T03:42:32;33.63;;;5.15;;
61635;SDS011;59438;45.014;39.006;2023-03-19T03:44:59;30.25;;;4.93;;
61635;SDS011;59438;45.014;39.006;2023-03-19T03:47:25;38.15;;;5.30;;
61635;SDS011;59438;45.014;39.006;2023-03-19T03:49:51;32.35;;;4.82;;
61635;SDS011;59438;45.014;39.006;2023-03-19T03:52:19;20.73;;;4.90;;
61635;SDS011;59438;45.014;39.006;2023-03-19T03:54:45;35.67;;;5.10;;
61635;SDS011;59438;45.014;39.006;2023-03-19T03:57:12;25.98;;;4.93;;
61635;SDS011;59438;45.014;39.006;2023-03-19T03:59:38;23.85;;;4.70;;
61635;SDS011;59438;45.014;39.006;2023-03-19T04:02:04;44.75;;;6.45;;
61635;SDS011;59438;45.014;39.006;2023-03-19T04:04:31;31.20;;;5.38;;
61635;SDS011;59438;45.014;39.006;2023-03-19T04:06:57;41.03;;;5.60;;
61635;SDS011;59438;45.014;39.006;2023-03-19T04:09:25;24.08;;;5.13;;
61635;SDS011;59438;45.014;39.006;2023-03-19T04:11:51;28.67;;;5.13;;
61635;SDS011;59438;45.014;39.006;2023-03-19T04:14:18;33.63;;;5.05;;
61635;SDS011;59438;45.014;39.006;2023-03-19T04:16:44;28.60;;;5.15;;
61635;SDS011;59438;45.014;39.006;2023-03-19T04:19:10;29.33;;;5.05;;
61635;SDS011;59438;45.014;39.006;2023-03-19T04:21:37;33.30;;;5.05;;
61635;SDS011;59438;45.014;39.006;2023-03-19T04:24:03;31.10;;;5.55;;
61635;SDS011;59438;45.014;39.006;2023-03-19T04:26:31;33.95;;;5.60;;
61635;SDS011;59438;45.014;39.006;2023-03-19T04:28:58;26.67;;;5.00;;
61635;SDS011;59438;45.014;39.006;2023-03-19T04:31:24;26.35;;;4.55;;
61635;SDS011;59438;45.014;39.006;2023-03-19T04:33:50;26.58;;;4.75;;
61635;SDS011;59438;45.014;39.006;2023-03-19T04:36:17;25.67;;;4.40;;
61635;SDS011;59438;45.014;39.006;2023-03-19T04:38:43;38.72;;;5.43;;
61635;SDS011;59438;45.014;39.006;2023-03-19T04:41:09;34.33;;;5.32;;
61635;SDS011;59438;45.014;39.006;2023-03-19T04:43:37;31.42;;;5.00;;
61635;SDS011;59438;45.014;39.006;2023-03-19T04:46:03;30.08;;;5.40;;
61635;SDS011;59438;45.014;39.006;2023-03-19T04:48:30;31.92;;;5.50;;
61635;SDS011;59438;45.014;39.006;2023-03-19T04:50:57;36.30;;;5.53;;
61635;SDS011;59438;45.014;39.006;2023-03-19T04:53:23;31.65;;;4.60;;
61635;SDS011;59438;45.014;39.006;2023-03-19T04:55:49;31.40;;;5.15;;
61635;SDS011;59438;45.014;39.006;2023-03-19T04:58:16;26.13;;;5.20;;
61635;SDS011;59438;45.014;39.006;2023-03-19T05:00:44;31.55;;;6.15;;
61635;SDS011;59438;45.014;39.006;2023-03-19T05:03:10;29.15;;;5.80;;
61635;SDS011;59438;45.014;39.006;2023-03-19T05:05:36;25.90;;;5.32;;
61635;SDS011;59438;45.014;39.006;2023-03-19T05:08:03;28.80;;;5.28;;
61635;SDS011;59438;45.014;39.006;2023-03-19T05:10:29;54.83;;;5.97;;
61635;SDS011;59438;45.014;39.006;2023-03-19T05:12:56;28.98;;;5.30;;
61635;SDS011;59438;45.014;39.006;2023-03-19T05:15:22;31.38;;;5.40;;
61635;SDS011;59438;45.014;39.006;2023-03-19T05:17:50;28.05;;;5.38;;
61635;SDS011;59438;45.014;39.006;2023-03-19T05:20:16;32.55;;;5.82;;
61635;SDS011;59438;45.014;39.006;2023-03-19T05:22:43;40.70;;;5.60;;
61635;SDS011;59438;45.014;39.006;2023-03-19T05:25:09;21.23;;;4.88;;
61635;SDS011;59438;45.014;39.006;2023-03-19T05:27:36;36.67;;;5.90;;
61635;SDS011;59438;45.014;39.006;2023-03-19T05:30:02;26.50;;;5.57;;
61635;SDS011;59438;45.014;39.006;2023-03-19T05:32:30;30.33;;;4.78;;
61635;SDS011;59438;45.014;39.006;2023-03-19T05:34:57;31.85;;;5.25;;
61635;SDS011;59438;45.014;39.006;2023-03-19T05:37:24;37.13;;;5.63;;
61635;SDS011;59438;45.014;39.006;2023-03-19T05:39:50;22.42;;;4.35;;
61635;SDS011;59438;45.014;39.006;2023-03-19T05:42:16;44.20;;;5.35;;
61635;SDS011;59438;45.014;39.006;2023-03-19T05:44:43;31.88;;;5.32;;
61635;SDS011;59438;45.014;39.006;2023-03-19T05:47:09;37.55;;;5.53;;
61635;SDS011;59438;45.014;39.006;2023-03-19T05:49:36;37.28;;;5.85;;
61635;SDS011;59438;45.014;39.006;2023-03-19T05:52:04;40.17;;;5.85;;
61635;SDS011;59438;45.014;39.006;2023-03-19T05:54:31;39.45;;;5.10;;
61635;SDS011;59438;45.014;39.006;2023-03-19T05:56:57;29.27;;;5.60;;
61635;SDS011;59438;45.014;39.006;2023-03-19T05:59:24;29.17;;;5.47;;
61635;SDS011;59438;45.014;39.006;2023-03-19T06:01:50;39.28;;;5.85;;
61635;SDS011;59438;45.014;39.006;2023-03-19T06:04:16;34.65;;;6.18;;
61635;SDS011;59438;45.014;39.006;2023-03-19T06:06:43;42.80;;;5.57;;
61635;SDS011;59438;45.014;39.006;2023-03-19T06:09:10;47.28;;;6.13;;
61635;SDS011;59438;45.014;39.006;2023-03-19T06:11:37;28.77;;;4.95;;
61635;SDS011;59438;45.014;39.006;2023-03-19T06:14:03;30.05;;;4.97;;
61635;SDS011;59438;45.014;39.006;2023-03-19T06:16:29;37.97;;;5.25;;
61635;SDS011;59438;45.014;39.006;2023-03-19T06:18:56;34.50;;;5.03;;
61635;SDS011;59438;45.014;39.006;2023-03-19T06:21:22;34.63;;;5.30;;
61635;SDS011;59438;45.014;39.006;2023-03-19T06:23:49;37.25;;;5.35;;
61635;SDS011;59438;45.014;39.006;2023-03-19T06:26:16;34.30;;;5.57;;
61635;SDS011;59438;45.014;39.006;2023-03-19T06:28:43;39.30;;;5.53;;
61635;SDS011;59438;45.014;39.006;2023-03-19T06:31:09;39.22;;;6.05;;
61635;SDS011;59438;45.014;39.006;2023-03-19T06:33:35;38.60;;;6.10;;
61635;SDS011;59438;45.014;39.006;2023-03-19T06:36:02;40.30;;;5.45;;
61635;SDS011;59438;45.014;39.006;2023-03-19T06:38:28;35.80;;;6.03;;
61635;SDS011;59438;45.014;39.006;2023-03-19T06:40:55;44.20;;;6.07;;
61635;SDS011;59438;45.014;39.006;2023-03-19T06:43:22;31.00;;;5.70;;
61635;SDS011;59438;45.014;39.006;2023-03-19T06:45:49;52.95;;;6.93;;
61635;SDS011;59438;45.014;39.006;2023-03-19T06:48:15;34.60;;;5.68;;
61635;SDS011;59438;45.014;39.006;2023-03-19T06:50:42;55.42;;;5.35;;
61635;SDS011;59438;45.014;39.006;2023-03-19T06:53:10;35.63;;;5.53;;
61635;SDS011;59438;45.014;39.006;2023-03-19T06:55:36;36.78;;;5.90;;
61635;SDS011;59438;45.014;39.006;2023-03-19T06:58:03;44.35;;;5.10;;
61635;SDS011;59438;45.014;39.006;2023-03-19T07:00:30;41.58;;;5.30;;
61635;SDS011;59438;45.014;39.006;2023-03-19T07:02:57;38.15;;;5.80;;
61635;SDS011;59438;45.014;39.006;2023-03-19T07:05:23;42.17;;;5.18;;
61635;SDS011;59438;45.014;39.006;2023-03-19T07:07:50;39.47;;;5.43;;
61635;SDS011;59438;45.014;39.006;2023-03-19T07:10:17;68.47;;;6.10;;
61635;SDS011;59438;45.014;39.006;2023-03-19T07:12:43;28.50;;;4.70;;
61635;SDS011;59438;45.014;39.006;2023-03-19T07:15:10;52.45;;;6.45;;
61635;SDS011;59438;45.014;39.006;2023-03-19T07:17:38;46.38;;;6.25;;
61635;SDS011;59438;45.014;39.006;2023-03-19T07:20:05;40.72;;;5.72;;
61635;SDS011;59438;45.014;39.006;2023-03-19T07:22:32;48.03;;;5.45;;
61635;SDS011;59438;45.014;39.006;2023-03-19T07:24:58;44.03;;;5.88;;
61635;SDS011;59438;45.014;39.006;2023-03-19T07:27:24;55.10;;;6.65;;
61635;SDS011;59438;45.014;39.006;2023-03-19T07:29:51;46.80;;;6.25;;
61635;SDS011;59438;45.014;39.006;2023-03-19T07:32:17;37.30;;;5.40;;
61635;SDS011;59438;45.014;39.006;2023-03-19T07:34:45;52.92;;;5.75;;
61635;SDS011;59438;45.014;39.006;2023-03-19T07:37:11;45.40;;;6.20;;
61635;SDS011;59438;45.014;39.006;2023-03-19T07:39:38;59.08;;;7.70;;
61635;SDS011;59438;45.014;39.006;2023-03-19T07:42:04;44.90;;;6.00;;
61635;SDS011;59438;45.014;39.006;2023-03-19T07:44:31;44.55;;;6.10;;
61635;SDS011;59438;45.014;39.006;2023-03-19T07:46:57;51.47;;;6.10;;
61635;SDS011;59438;45.014;39.006;2023-03-19T07:49:23;57.47;;;7.40;;
61635;SDS011;59438;45.014;39.006;2023-03-19T07:51:51;45.38;;;5.75;;
61635;SDS011;59438;45.014;39.006;2023-03-19T07:54:18;45.10;;;6.03;;
61635;SDS011;59438;45.014;39.006;2023-03-19T07:56:44;38.28;;;5.68;;
61635;SDS011;59438;45.014;39.006;2023-03-19T07:59:10;46.88;;;6.45;;
61635;SDS011;59438;45.014;39.006;2023-03-19T08:01:36;41.15;;;5.80;;
61635;SDS011;59438;45.014;39.006;2023-03-19T08:04:03;39.17;;;6.32;;
61635;SDS011;59438;45.014;39.006;2023-03-19T08:06:29;40.53;;;6.68;;
61635;SDS011;59438;45.014;39.006;2023-03-19T08:08:57;57.42;;;6.95;;
61635;SDS011;59438;45.014;39.006;2023-03-19T08:11:23;49.78;;;6.78;;
61635;SDS011;59438;45.014;39.006;2023-03-19T08:13:50;38.97;;;6.38;;
61635;SDS011;59438;45.014;39.006;2023-03-19T08:16:16;36.47;;;6.60;;
61635;SDS011;59438;45.014;39.006;2023-03-19T08:18:43;49.33;;;6.55;;
61635;SDS011;59438;45.014;39.006;2023-03-19T08:21:10;61.00;;;6.60;;
61635;SDS011;59438;45.014;39.006;2023-03-19T08:23:36;40.75;;;6.40;;
61635;SDS011;59438;45.014;39.006;2023-03-19T08:26:04;46.22;;;6.75;;
61635;SDS011;59438;45.014;39.006;2023-03-19T08:28:30;40.88;;;6.32;;
61635;SDS011;59438;45.014;39.006;2023-03-19T08:30:57;38.85;;;6.30;;
61635;SDS011;59438;45.014;39.006;2023-03-19T08:33:23;39.10;;;7.13;;
61635;SDS011;59438;45.014;39.006;2023-03-19T08:35:49;44.33;;;6.40;;
61635;SDS011;59438;45.014;39.006;2023-03-19T08:38:16;48.58;;;8.82;;
61635;SDS011;59438;45.014;39.006;2023-03-19T08:40:42;44.25;;;6.82;;
61635;SDS011;59438;45.014;39.006;2023-03-19T08:43:10;42.78;;;7.47;;
61635;SDS011;59438;45.014;39.006;2023-03-19T08:45:37;46.78;;;6.40;;
61635;SDS011;59438;45.014;39.006;2023-03-19T08:48:03;57.08;;;6.95;;
61635;SDS011;59438;45.014;39.006;2023-03-19T08:50:30;46.40;;;6.43;;
61635;SDS011;59438;45.014;39.006;2023-03-19T08:52:57;43.20;;;5.53;;
61635;SDS011;59438;45.014;39.006;2023-03-19T08:55:23;42.63;;;6.82;;
61635;SDS011;59438;45.014;39.006;2023-03-19T08:57:50;46.33;;;6.53;;
61635;SDS011;59438;45.014;39.006;2023-03-19T09:00:18;36.38;;;5.78;;
61635;SDS011;59438;45.014;39.006;2023-03-19T09:02:45;34.95;;;6.45;;
61635;SDS011;59438;45.014;39.006;2023-03-19T09:05:11;36.85;;;6.47;;
61635;SDS011;59438;45.014;39.006;2023-03-19T09:07:37;44.78;;;6.95;;
61635;SDS011;59438;45.014;39.006;2023-03-19T09:10:04;51.40;;;6.10;;
61635;SDS011;59438;45.014;39.006;2023-03-19T09:12:31;37.05;;;6.43;;
61635;SDS011;59438;45.014;39.006;2023-03-19T09:14:57;48.85;;;7.28;;
61635;SDS011;59438;45.014;39.006;2023-03-19T09:17:26;41.38;;;6.80;;
61635;SDS011;59438;45.014;39.006;2023-03-19T09:19:52;45.97;;;7.18;;
61635;SDS011;59438;45.014;39.006;2023-03-19T09:22:19;56.50;;;7.05;;
61635;SDS011;59438;45.014;39.006;2023-03-19T09:24:46;47.55;;;6.80;;
61635;SDS011;59438;45.014;39.006;2023-03-19T09:27:12;29.83;;;6.03;;
61635;SDS011;59438;45.014;39.006;2023-03-19T09:29:38;42.63;;;6.85;;
61635;SDS011;59438;45.014;39.006;2023-03-19T09:32:05;41.70;;;6.82;;
61635;SDS011;59438;45.014;39.006;2023-03-19T09:34:33;44.90;;;6.97;;
61635;SDS011;59438;45.014;39.006;2023-03-19T09:36:59;45.20;;;7.85;;
61635;SDS011;59438;45.014;39.006;2023-03-19T09:39:25;46.67;;;7.55;;
61635;SDS011;59438;45.014;39.006;2023-03-19T09:41:55;37.03;;;7.25;;
61635;SDS011;59438;45.014;39.006;2023-03-19T09:44:31;36.60;;;7.45;;
61635;SDS011;59438;45.014;39.006;2023-03-19T09:47:03;35.65;;;7.35;;
61635;SDS011;59438;45.014;39.006;2023-03-19T09:49:40;40.95;;;7.40;;
61635;SDS011;59438;45.014;39.006;2023-03-19T09:52:12;41.92;;;7.07;;
61635;SDS011;59438;45.014;39.006;2023-03-19T09:54:45;33.60;;;7.43;;
61635;SDS011;59438;45.014;39.006;2023-03-19T09:57:14;37.55;;;6.55;;
61635;SDS011;59438;45.014;39.006;2023-03-19T09:59:40;36.92;;;6.90;;
61635;SDS011;59438;45.014;39.006;2023-03-19T10:02:23;39.97;;;6.82;;
61635;SDS011;59438;45.014;39.006;2023-03-19T10:05:17;31.38;;;6.35;;
61635;SDS011;59438;45.014;39.006;2023-03-19T10:07:51;35.03;;;10.15;;
61635;SDS011;59438;45.014;39.006;2023-03-19T10:10:44;39.03;;;7.00;;
61635;SDS011;59438;45.014;39.006;2023-03-19T10:16:13;32.63;;;8.32;;
61635;SDS011;59438;45.014;39.006;2023-03-19T10:18:46;33.58;;;7.25;;
61635;SDS011;59438;45.014;39.006;2023-03-19T10:21:17;36.97;;;7.22;;
61635;SDS011;59438;45.014;39.006;2023-03-19T10:23:47;32.42;;;6.85;;
61635;SDS011;59438;45.014;39.006;2023-03-19T10:26:18;35.28;;;7.32;;
61635;SDS011;59438;45.014;39.006;2023-03-19T10:28:49;32.78;;;6.90;;
61635;SDS011;59438;45.014;39.006;2023-03-19T10:31:25;32.42;;;7.32;;
61635;SDS011;59438;45.014;39.006;2023-03-19T10:33:57;39.05;;;8.35;;
61635;SDS011;59438;45.014;39.006;2023-03-19T10:36:37;38.22;;;7.78;;
61635;SDS011;59438;45.014;39.006;2023-03-19T10:39:04;28.05;;;7.55;;
61635;SDS011;59438;45.014;39.006;2023-03-19T10:41:33;24.30;;;6.78;;
61635;SDS011;59438;45.014;39.006;2023-03-19T10:44:09;44.92;;;9.18;;
61635;SDS011;59438;45.014;39.006;2023-03-19T10:46:41;38.53;;;7.65;;
61635;SDS011;59438;45.014;39.006;2023-03-19T10:49:11;26.80;;;7.65;;
61635;SDS011;59438;45.014;39.006;2023-03-19T10:51:40;31.88;;;7.80;;
61635;SDS011;59438;45.014;39.006;2023-03-19T10:54:18;39.72;;;7.65;;
61635;SDS011;59438;45.014;39.006;2023-03-19T10:56:46;36.30;;;8.02;;
61635;SDS011;59438;45.014;39.006;2023-03-19T10:59:19;31.25;;;7.65;;
61635;SDS011;59438;45.014;39.006;2023-03-19T11:01:48;44.13;;;7.82;;
61635;SDS011;59438;45.014;39.006;2023-03-19T11:04:15;33.88;;;7.82;;
61635;SDS011;59438;45.014;39.006;2023-03-19T11:06:48;45.88;;;8.40;;
61635;SDS011;59438;45.014;39.006;2023-03-19T11:09:17;43.08;;;7.88;;
61635;SDS011;59438;45.014;39.006;2023-03-19T11:11:48;30.88;;;7.63;;
61635;SDS011;59438;45.014;39.006;2023-03-19T11:14:18;30.10;;;7.03;;
61635;SDS011;59438;45.014;39.006;2023-03-19T11:16:53;34.65;;;7.70;;
61635;SDS011;59438;45.014;39.006;2023-03-19T11:19:21;41.47;;;7.10;;
61635;SDS011;59438;45.014;39.006;2023-03-19T11:21:56;37.72;;;7.88;;
61635;SDS011;59438;45.014;39.006;2023-03-19T11:24:25;40.17;;;7.80;;
61635;SDS011;59438;45.014;39.006;2023-03-19T11:26:53;25.83;;;6.78;;
61635;SDS011;59438;45.014;39.006;2023-03-19T11:29:20;34.00;;;7.80;;
61635;SDS011;59438;45.014;39.006;2023-03-19T11:31:48;34.42;;;9.52;;
61635;SDS011;59438;45.014;39.006;2023-03-19T11:34:21;48.20;;;15.98;;
61635;SDS011;59438;45.014;39.006;2023-03-19T11:36:54;43.15;;;13.70;;
61635;SDS011;59438;45.014;39.006;2023-03-19T11:39:29;30.50;;;7.47;;
61635;SDS011;59438;45.014;39.006;2023-03-19T11:42:10;29.65;;;7.40;;
61635;SDS011;59438;45.014;39.006;2023-03-19T11:45:11;32.28;;;6.97;;
61635;SDS011;59438;45.014;39.006;2023-03-19T11:47:46;39.53;;;7.30;;
61635;SDS011;59438;45.014;39.006;2023-03-19T11:50:22;32.55;;;6.68;;
61635;SDS011;59438;45.014;39.006;2023-03-19T11:53:02;30.48;;;7.20;;
61635;SDS011;59438;45.014;39.006;2023-03-19T11:55:37;43.45;;;7.57;;
61635;SDS011;59438;45.014;39.006;2023-03-19T11:58:10;26.02;;;8.63;;
61635;SDS011;59438;45.014;39.006;2023-03-19T12:00:50;28.85;;;8.07;;
61635;SDS011;59438;45.014;39.006;2023-03-19T12:06:24;29.52;;;7.70;;
61635;SDS011;59438;45.014;39.006;2023-03-19T12:09:02;32.20;;;7.07;;
61635;SDS011;59438;45.014;39.006;2023-03-19T12:11:40;30.35;;;7.30;;
61635;SDS011;59438;45.014;39.006;2023-03-19T12:14:16;23.52;;;6.30;;
61635;SDS011;59438;45.014;39.006;2023-03-19T12:16:56;23.48;;;6.95;;
61635;SDS011;59438;45.014;39.006;2023-03-19T12:19:35;33.78;;;8.43;;
61635;SDS011;59438;45.014;39.006;2023-03-19T12:22:15;22.80;;;8.55;;
61635;SDS011;59438;45.014;39.006;2023-03-19T12:25:00;28.17;;;7.90;;
61635;SDS011;59438;45.014;39.006;2023-03-19T12:27:35;27.23;;;7.60;;
61635;SDS011;59438;45.014;39.006;2023-03-19T12:30:12;25.65;;;9.52;;
61635;SDS011;59438;45.014;39.006;2023-03-19T12:32:45;40.47;;;14.18;;
61635;SDS011;59438;45.014;39.006;2023-03-19T12:35:25;34.35;;;9.85;;
61635;SDS011;59438;45.014;39.006;2023-03-19T12:37:58;26.08;;;8.38;;
61635;SDS011;59438;45.014;39.006;2023-03-19T12:40:31;20.88;;;7.20;;
61635;SDS011;59438;45.014;39.006;2023-03-19T12:43:04;20.90;;;7.55;;
61635;SDS011;59438;45.014;39.006;2023-03-19T12:45:38;31.83;;;8.52;;
61635;SDS011;59438;45.014;39.006;2023-03-19T12:48:09;27.42;;;8.93;;
61635;SDS011;59438;45.014;39.006;2023-03-19T12:50:40;23.50;;;8.15;;
61635;SDS011;59438;45.014;39.006;2023-03-19T12:55:44;23.90;;;7.63;;
61635;SDS011;59438;45.014;39.006;2023-03-19T12:58:16;22.60;;;7.68;;
61635;SDS011;59438;45.014;39.006;2023-03-19T13:00:50;24.95;;;8.15;;
61635;SDS011;59438;45.014;39.006;2023-03-19T13:03:24;20.23;;;7.80;;
61635;SDS011;59438;45.014;39.006;2023-03-19T13:05:59;24.85;;;7.45;;
61635;SDS011;59438;45.014;39.006;2023-03-19T13:08:30;20.77;;;8.05;;
61635;SDS011;59438;45.014;39.006;2023-03-19T13:11:02;19.13;;;7.55;;
61635;SDS011;59438;45.014;39.006;2023-03-19T13:13:37;25.08;;;7.85;;
61635;SDS011;59438;45.014;39.006;2023-03-19T13:16:08;17.73;;;7.30;;
61635;SDS011;59438;45.014;39.006;2023-03-19T13:18:45;20.50;;;6.70;;
61635;SDS011;59438;45.014;39.006;2023-03-19T13:21:21;16.25;;;7.57;;
61635;SDS011;59438;45.014;39.006;2023-03-19T13:23:50;18.90;;;8.50;;
61635;SDS011;59438;45.014;39.006;2023-03-19T13:26:27;13.95;;;7.60;;
61635;SDS011;59438;45.014;39.006;2023-03-19T13:28:54;24.98;;;7.95;;
61635;SDS011;59438;45.014;39.006;2023-03-19T13:31:25;22.48;;;8.88;;
61635;SDS011;59438;45.014;39.006;2023-03-19T13:33:54;20.20;;;8.23;;
61635;SDS011;59438;45.014;39.006;2023-03-19T13:36:28;18.92;;;7.70;;
61635;SDS011;59438;45.014;39.006;2023-03-19T13:38:56;38.78;;;11.18;;
61635;SDS011;59438;45.014;39.006;2023-03-19T13:44:28;21.85;;;7.78;;
61635;SDS011;59438;45.014;39.006;2023-03-19T13:50:19;26.83;;;11.52;;
61635;SDS011;59438;45.014;39.006;2023-03-19T13:52:52;25.08;;;10.43;;
61635;SDS011;59438;45.014;39.006;2023-03-19T13:55:30;29.00;;;13.35;;
61635;SDS011;59438;45.014;39.006;2023-03-19T13:58:14;22.35;;;8.15;;
61635;SDS011;59438;45.014;39.006;2023-03-19T14:00:57;28.15;;;11.57;;
61635;SDS011;59438;45.014;39.006;2023-03-19T14:03:24;26.98;;;8.40;;
61635;SDS011;59438;45.014;39.006;2023-03-19T14:05:52;29.63;;;8.80;;
61635;SDS011;59438;45.014;39.006;2023-03-19T14:08:21;28.75;;;8.13;;
61635;SDS011;59438;45.014;39.006;2023-03-19T14:10:50;22.65;;;8.57;;
61635;SDS011;59438;45.014;39.006;2023-03-19T14:13:22;20.23;;;8.00;;
61635;SDS011;59438;45.014;39.006;2023-03-19T14:15:53;22.17;;;7.38;;
61635;SDS011;59438;45.014;39.006;2023-03-19T14:18:29;19.02;;;8.27;;
61635;SDS011;59438;45.014;39.006;2023-03-19T14:20:57;19.95;;;8.20;;
61635;SDS011;59438;45.014;39.006;2023-03-19T14:23:25;25.45;;;8.88;;
61635;SDS011;59438;45.014;39.006;2023-03-19T14:26:03;29.73;;;8.90;;
61635;SDS011;59438;45.014;39.006;2023-03-19T14:28:34;54.10;;;22.55;;
61635;SDS011;59438;45.014;39.006;2023-03-19T14:31:14;36.45;;;12.43;;
61635;SDS011;59438;45.014;39.006;2023-03-19T14:33:48;26.92;;;9.90;;
61635;SDS011;59438;45.014;39.006;2023-03-19T14:36:18;28.10;;;10.07;;
61635;SDS011;59438;45.014;39.006;2023-03-19T14:38:47;26.40;;;10.88;;
61635;SDS011;59438;45.014;39.006;2023-03-19T14:41:17;25.02;;;9.38;;
61635;SDS011;59438;45.014;39.006;2023-03-19T14:43:52;19.45;;;8.93;;
61635;SDS011;59438;45.014;39.006;2023-03-19T14:46:43;22.92;;;10.55;;
61635;SDS011;59438;45.014;39.006;2023-03-19T14:52:16;29.02;;;9.57;;